KAWO/AWO METAR and TAF weather

Enter ICAO airport designator
Station Type Date Time Source
KAWO METAR 2018/10/16 20:56 UTC NOAA

KAWO 162056Z AUTO 32005KT 10SM CLR 19/09 A3028 RMK AO2 SLP257 T01890094 58016


Station Type Date Time Source
KAWO Decoded METAR 2018/10/16 20:56 UTC NOAA

Arlington Municipal, WA, United States (KAWO) 48-10N 122-10W
Oct 16, 2018 - 04:56 PM EDT / 2018.10.16 2056 UTC
Wind: from the NW (320 degrees) at 6 MPH (5 KT):0
Visibility: 10 mile(s):0
Sky conditions: clear
Temperature: 66.0 F (18.9 C)
Dew Point: 48.9 F (9.4 C)
Relative Humidity: 54%
Pressure (altimeter): 30.28 in. Hg (1025 hPa)
Pressure tendency: 0.05 inches (1.6 hPa) lower than three hours ago
ob: KAWO 162056Z AUTO 32005KT 10SM CLR 19/09 A3028 RMK AO2 SLP257 T01890094 58016
cycle: 21

Station Type Date Time Source
KAWO TAF UTC NOAA

Error!


Example: see airport list